createdAt,value
2022-08-17T00:00:08.753Z,27.13
2022-08-17T00:01:54.354Z,27.14
2022-08-17T00:02:59.160Z,27.14
2022-08-17T00:04:10.724Z,27.15
2022-08-17T00:05:20.910Z,27.15
2022-08-17T00:06:25.286Z,27.16
2022-08-17T00:07:29.657Z,27.15
2022-08-17T00:08:34.160Z,27.14
2022-08-17T00:09:38.516Z,27.16
2022-08-17T00:10:42.865Z,27.16
2022-08-17T00:12:34.810Z,27.16
2022-08-17T00:13:48.293Z,27.15
2022-08-17T00:14:58.245Z,27.15
2022-08-17T00:16:02.679Z,27.15
2022-08-17T00:17:07.065Z,27.16
2022-08-17T00:18:54.089Z,27.14
2022-08-17T00:20:12.299Z,27.15
2022-08-17T00:21:23.709Z,27.14
2022-08-17T00:23:38.432Z,27.13
2022-08-17T00:24:53.349Z,27.12
2022-08-17T00:25:57.739Z,27.12
2022-08-17T00:27:02.099Z,27.12
2022-08-17T00:28:06.464Z,27.12
2022-08-17T00:29:10.868Z,27.12
2022-08-17T00:30:23.813Z,27.12
2022-08-17T00:31:28.232Z,27.13
2022-08-17T00:33:10.247Z,27.12
2022-08-17T00:34:20.474Z,27.12
2022-08-17T00:35:24.859Z,27.11
2022-08-17T00:36:29.206Z,27.12
2022-08-17T00:37:33.533Z,27.11
2022-08-17T00:38:37.878Z,27.11
2022-08-17T00:39:42.320Z,27.1
2022-08-17T00:40:46.916Z,27.11
2022-08-17T00:41:54.111Z,27.11
2022-08-17T00:43:01.381Z,27.11
2022-08-17T00:44:05.762Z,27.11
2022-08-17T00:45:10.158Z,27.11
2022-08-17T00:46:14.510Z,27.12
2022-08-17T00:47:18.880Z,27.11
2022-08-17T00:48:29.736Z,27.1
2022-08-17T00:49:34.524Z,27.1
2022-08-17T00:50:38.962Z,27.1
2022-08-17T00:51:43.366Z,27.11
2022-08-17T00:52:47.743Z,27.1
2022-08-17T00:53:52.649Z,27.11
2022-08-17T00:54:57.015Z,27.11
2022-08-17T00:56:01.408Z,27.1
2022-08-17T00:57:05.755Z,27.11
2022-08-17T00:58:11.372Z,27.11
2022-08-17T00:59:15.705Z,27.11
2022-08-17T01:00:20.070Z,27.1
2022-08-17T01:01:24.506Z,27.1
2022-08-17T01:02:29.075Z,27.09
2022-08-17T01:03:46.293Z,27.08
2022-08-17T01:04:50.793Z,27.08
2022-08-17T01:05:55.121Z,27.06
2022-08-17T01:07:00.125Z,27.06
2022-08-17T01:08:04.484Z,27.07
2022-08-17T01:09:08.846Z,27.07
2022-08-17T01:10:57.855Z,27.06
2022-08-17T01:12:05.834Z,27.06
2022-08-17T01:13:13.839Z,27.06
2022-08-17T01:14:18.240Z,27.07
2022-08-17T01:15:22.584Z,27.06
2022-08-17T01:16:26.973Z,27.06
2022-08-17T01:17:31.326Z,27.05
2022-08-17T01:18:35.666Z,27.06
2022-08-17T01:19:39.997Z,27.05
2022-08-17T01:20:48.373Z,27.04
2022-08-17T01:21:53.088Z,27.04
2022-08-17T01:22:57.442Z,27.04
2022-08-17T01:24:01.797Z,27.05
2022-08-17T01:25:06.164Z,27.03
2022-08-17T01:26:10.514Z,27.03
2022-08-17T01:27:14.896Z,27.04
2022-08-17T01:28:33.270Z,27.02
2022-08-17T01:29:59.307Z,27.02
2022-08-17T01:31:03.715Z,27.02
2022-08-17T01:32:08.153Z,27.02
2022-08-17T01:33:13.059Z,27.02
2022-08-17T01:34:17.457Z,27.02
2022-08-17T01:35:22.730Z,27.03
2022-08-17T01:36:27.103Z,27.03
2022-08-17T01:37:31.565Z,27.03
2022-08-17T01:38:36.016Z,27.02
2022-08-17T01:39:40.603Z,27.01
2022-08-17T01:40:45.159Z,27
2022-08-17T01:41:59.887Z,26.99
2022-08-17T01:43:04.350Z,26.98
2022-08-17T01:44:08.694Z,26.98
2022-08-17T01:45:13.035Z,26.98
2022-08-17T01:46:17.386Z,26.98
2022-08-17T01:47:21.719Z,26.98
2022-08-17T01:48:28.334Z,26.96
2022-08-17T01:49:32.676Z,26.97
2022-08-17T01:50:37.081Z,26.97
2022-08-17T01:51:41.409Z,26.96
2022-08-17T01:52:45.763Z,26.99
2022-08-17T01:53:50.252Z,26.99
2022-08-17T01:54:54.611Z,26.99
2022-08-17T01:55:58.969Z,26.99
2022-08-17T01:57:03.324Z,26.98
2022-08-17T01:58:07.686Z,26.98
2022-08-17T01:59:12.017Z,26.97
2022-08-17T02:00:18.666Z,26.98
2022-08-17T02:01:23.087Z,27.01
2022-08-17T02:02:30.703Z,27.03
2022-08-17T02:03:35.842Z,27.03
2022-08-17T02:04:40.195Z,27.04
2022-08-17T02:05:44.545Z,27.04
2022-08-17T02:06:53.931Z,27.04
2022-08-17T02:08:00.141Z,26.99
2022-08-17T02:09:08.133Z,26.96
2022-08-17T02:10:25.551Z,26.95
2022-08-17T02:11:48.976Z,26.92
2022-08-17T02:12:56.458Z,26.9
2022-08-17T02:14:03.085Z,26.9
2022-08-17T02:15:08.275Z,26.91
2022-08-17T02:16:12.636Z,26.91
2022-08-17T02:17:16.970Z,26.9
2022-08-17T02:18:21.287Z,26.89
2022-08-17T02:19:25.657Z,26.89
2022-08-17T02:20:36.377Z,26.89
2022-08-17T02:21:46.371Z,26.89
2022-08-17T02:22:51.008Z,26.89
2022-08-17T02:23:55.723Z,26.9
2022-08-17T02:25:02.237Z,26.91
2022-08-17T02:26:06.930Z,26.92
2022-08-17T02:27:26.539Z,26.9
2022-08-17T02:28:30.924Z,26.9
2022-08-17T02:29:35.293Z,26.92
2022-08-17T02:30:50.060Z,26.92
2022-08-17T02:32:06.699Z,26.9
2022-08-17T02:33:11.047Z,26.9
2022-08-17T02:34:15.730Z,26.9
2022-08-17T02:35:20.106Z,26.89
2022-08-17T02:36:27.493Z,26.89
2022-08-17T02:37:31.960Z,26.9
2022-08-17T02:38:36.370Z,26.88
2022-08-17T02:39:40.783Z,26.86
2022-08-17T02:40:45.265Z,26.87
2022-08-17T02:41:49.733Z,26.88
2022-08-17T02:42:54.087Z,26.88
2022-08-17T02:43:58.485Z,26.87
2022-08-17T02:45:02.846Z,26.87
2022-08-17T02:46:07.207Z,26.86
2022-08-17T02:47:11.555Z,26.86
2022-08-17T02:48:15.900Z,26.86
2022-08-17T02:49:35.681Z,26.86
2022-08-17T02:50:40.047Z,26.86
2022-08-17T02:51:44.394Z,26.85
2022-08-17T02:52:48.863Z,26.86
2022-08-17T02:54:39.494Z,26.85
2022-08-17T02:55:45.927Z,26.84
2022-08-17T02:56:50.302Z,26.83
2022-08-17T02:57:54.670Z,26.83
2022-08-17T02:58:59.011Z,26.83
2022-08-17T03:00:03.497Z,26.84
2022-08-17T03:01:07.860Z,26.84
2022-08-17T03:02:12.481Z,26.83
2022-08-17T03:03:16.836Z,26.83
2022-08-17T03:04:21.203Z,26.8
2022-08-17T03:05:25.568Z,26.8
2022-08-17T03:06:29.959Z,26.81
2022-08-17T03:07:34.305Z,26.81
2022-08-17T03:08:38.630Z,26.8
2022-08-17T03:09:43.021Z,26.79
2022-08-17T03:10:47.370Z,26.79
2022-08-17T03:11:51.722Z,26.8
2022-08-17T03:13:00.172Z,26.78
2022-08-17T03:14:04.505Z,26.78
2022-08-17T03:15:08.845Z,26.77
2022-08-17T03:16:13.172Z,26.78
2022-08-17T03:17:17.613Z,26.78
2022-08-17T03:18:25.193Z,26.77
2022-08-17T03:19:29.955Z,26.77
2022-08-17T03:20:34.321Z,26.77
2022-08-17T03:21:38.691Z,26.76
2022-08-17T03:22:43.056Z,26.76
2022-08-17T03:24:08.845Z,26.76
2022-08-17T03:25:13.877Z,26.76
2022-08-17T03:26:26.012Z,26.76
2022-08-17T03:27:34.203Z,26.75
2022-08-17T03:28:41.809Z,26.75
2022-08-17T03:29:46.209Z,26.74
2022-08-17T03:30:50.551Z,26.74
2022-08-17T03:31:55.085Z,26.75
2022-08-17T03:32:59.427Z,26.75
2022-08-17T03:34:03.791Z,26.75
2022-08-17T03:35:08.108Z,26.75
2022-08-17T03:36:15.195Z,26.75
2022-08-17T03:37:19.575Z,26.75
2022-08-17T03:38:23.935Z,26.76
2022-08-17T03:39:28.989Z,26.76
2022-08-17T03:40:34.283Z,26.76
2022-08-17T03:42:03.272Z,26.77
2022-08-17T03:43:07.615Z,26.79
2022-08-17T03:44:11.976Z,26.79
2022-08-17T03:45:16.350Z,26.8
2022-08-17T03:46:29.111Z,26.81
2022-08-17T03:47:39.582Z,26.81
2022-08-17T03:48:46.838Z,26.81
2022-08-17T03:49:51.170Z,26.82
2022-08-17T03:50:55.524Z,26.82
2022-08-17T03:51:59.910Z,26.82
2022-08-17T03:53:04.276Z,26.81
2022-08-17T03:54:08.612Z,26.82
2022-08-17T03:55:13.127Z,26.83
2022-08-17T03:56:17.466Z,26.83
2022-08-17T03:57:21.809Z,26.83
2022-08-17T03:58:26.149Z,26.82
2022-08-17T03:59:30.495Z,26.81
2022-08-17T04:00:35.026Z,26.81
2022-08-17T04:01:44.079Z,26.81
2022-08-17T04:02:48.762Z,26.8
2022-08-17T04:03:53.638Z,26.8
2022-08-17T04:04:58.008Z,26.8
2022-08-17T04:06:02.432Z,26.81
2022-08-17T04:07:06.815Z,26.8
2022-08-17T04:08:11.186Z,26.81
2022-08-17T04:09:15.526Z,26.81
2022-08-17T04:10:24.738Z,26.81
2022-08-17T04:11:43.698Z,26.82
2022-08-17T04:12:48.043Z,26.82
2022-08-17T04:13:53.061Z,26.84
2022-08-17T04:14:57.421Z,26.83
2022-08-17T04:16:01.799Z,26.85
2022-08-17T04:17:07.751Z,26.87
2022-08-17T04:18:12.126Z,26.88
2022-08-17T04:19:16.525Z,26.87
2022-08-17T04:20:20.914Z,26.9
2022-08-17T04:21:25.285Z,26.91
2022-08-17T04:22:31.545Z,26.92
2022-08-17T04:23:38.168Z,26.85
2022-08-17T04:24:42.589Z,26.83
2022-08-17T04:25:48.122Z,26.79
2022-08-17T04:26:54.638Z,26.71
2022-08-17T04:27:59.088Z,26.65
2022-08-17T04:29:03.479Z,26.65
2022-08-17T04:30:07.867Z,26.62
2022-08-17T04:31:12.220Z,26.56
2022-08-17T04:32:17.417Z,26.54
2022-08-17T04:34:10.085Z,26.49
2022-08-17T04:35:14.448Z,26.47
2022-08-17T04:36:18.803Z,26.46
2022-08-17T04:37:23.168Z,26.46
2022-08-17T04:38:27.531Z,26.43
2022-08-17T04:39:33.824Z,26.47
2022-08-17T04:40:38.461Z,26.44
2022-08-17T04:41:43.219Z,26.46
2022-08-17T04:42:47.776Z,26.41
2022-08-17T04:44:05.226Z,26.42
2022-08-17T04:45:09.597Z,26.46
2022-08-17T04:46:14.073Z,26.48
2022-08-17T04:47:18.441Z,26.49
2022-08-17T04:48:22.797Z,26.45
2022-08-17T04:49:40.172Z,26.46
2022-08-17T04:50:44.573Z,26.45
2022-08-17T04:51:54.776Z,26.41
2022-08-17T04:53:07.460Z,26.47
2022-08-17T04:54:11.824Z,26.45
2022-08-17T04:55:16.183Z,26.46
2022-08-17T04:56:20.542Z,26.45
2022-08-17T04:57:24.908Z,26.42
2022-08-17T04:58:29.271Z,26.41
2022-08-17T04:59:33.671Z,26.44
2022-08-17T05:00:38.025Z,26.44
2022-08-17T05:01:42.409Z,26.45
2022-08-17T05:02:50.144Z,26.42
2022-08-17T05:03:55.368Z,26.44
2022-08-17T05:04:59.874Z,26.47
2022-08-17T05:06:04.458Z,26.48
2022-08-17T05:07:08.855Z,26.5
2022-08-17T05:08:13.248Z,26.49
2022-08-17T05:09:17.596Z,26.49
2022-08-17T05:10:21.939Z,26.51
2022-08-17T05:11:26.331Z,26.49
2022-08-17T05:12:30.679Z,26.44
2022-08-17T05:13:35.044Z,26.43
2022-08-17T05:14:39.411Z,26.46
2022-08-17T05:15:44.777Z,26.5
2022-08-17T05:16:51.421Z,26.49
2022-08-17T05:17:55.859Z,26.47
2022-08-17T05:19:00.224Z,26.51
2022-08-17T05:20:04.581Z,26.48
2022-08-17T05:21:08.927Z,26.51
2022-08-17T05:22:13.322Z,26.5
2022-08-17T05:23:17.693Z,26.51
2022-08-17T05:24:38.782Z,26.51
2022-08-17T05:25:57.979Z,26.5
2022-08-17T05:27:06.073Z,26.54
2022-08-17T05:28:11.046Z,26.5
2022-08-17T05:29:15.477Z,26.5
2022-08-17T05:30:19.858Z,26.51
2022-08-17T05:31:24.221Z,26.52
2022-08-17T05:32:37.483Z,26.52
2022-08-17T05:33:46.263Z,26.54
2022-08-17T05:34:50.768Z,26.56
2022-08-17T05:35:55.944Z,26.53
2022-08-17T05:37:00.331Z,26.55
2022-08-17T05:38:04.693Z,26.58
2022-08-17T05:39:09.054Z,26.56
2022-08-17T05:40:20.852Z,26.55
2022-08-17T05:41:25.234Z,26.59
2022-08-17T05:42:29.688Z,26.61
2022-08-17T05:43:34.077Z,26.62
2022-08-17T05:44:38.430Z,26.62
2022-08-17T05:45:42.828Z,26.66
2022-08-17T05:47:00.058Z,26.66
2022-08-17T05:48:04.416Z,26.66
2022-08-17T05:49:08.771Z,26.68
2022-08-17T05:50:13.146Z,26.69
2022-08-17T05:51:29.320Z,26.71
2022-08-17T05:52:33.839Z,26.72
2022-08-17T05:53:38.426Z,26.72
2022-08-17T05:54:46.279Z,26.73
2022-08-17T05:55:50.708Z,26.74
2022-08-17T05:56:55.158Z,26.74
2022-08-17T05:57:59.600Z,26.74
2022-08-17T05:59:04.540Z,26.74
2022-08-17T06:00:09.922Z,26.75
2022-08-17T06:01:16.188Z,26.76
2022-08-17T06:02:20.802Z,26.76
2022-08-17T06:03:25.216Z,26.76
2022-08-17T06:04:29.655Z,26.76
2022-08-17T06:05:34.116Z,26.75
2022-08-17T06:06:38.494Z,26.75
2022-08-17T06:07:42.862Z,26.76
2022-08-17T06:08:48.099Z,26.77
2022-08-17T06:09:55.798Z,26.78
2022-08-17T06:11:00.274Z,26.76
2022-08-17T06:12:05.708Z,26.77
2022-08-17T06:13:22.158Z,26.77
2022-08-17T06:14:26.535Z,26.79
2022-08-17T06:15:30.901Z,26.79
2022-08-17T06:16:36.412Z,26.8
2022-08-17T06:17:40.754Z,26.82
2022-08-17T06:18:45.278Z,26.81
2022-08-17T06:19:49.657Z,26.82
2022-08-17T06:20:54.024Z,26.81
2022-08-17T06:21:58.421Z,26.8
2022-08-17T06:23:02.780Z,26.81
2022-08-17T06:24:07.166Z,26.82
2022-08-17T06:25:11.534Z,26.81
2022-08-17T06:26:15.967Z,26.81
2022-08-17T06:27:20.312Z,26.81
2022-08-17T06:28:24.685Z,26.82
2022-08-17T06:29:29.060Z,26.83
2022-08-17T06:30:41.376Z,26.83
2022-08-17T06:32:04.982Z,26.82
2022-08-17T06:33:09.329Z,26.83
2022-08-17T06:34:13.746Z,26.84
2022-08-17T06:35:18.107Z,26.83
2022-08-17T06:36:22.474Z,26.82
2022-08-17T06:37:29.364Z,26.85
2022-08-17T06:38:37.281Z,26.85
2022-08-17T06:39:42.828Z,26.85
2022-08-17T06:40:47.376Z,26.85
2022-08-17T06:41:51.776Z,26.86
2022-08-17T06:43:02.957Z,26.88
2022-08-17T06:44:11.696Z,26.87
2022-08-17T06:45:54.552Z,26.88
2022-08-17T06:46:58.901Z,26.89
2022-08-17T06:48:03.295Z,26.88
2022-08-17T06:49:07.659Z,26.89
2022-08-17T06:50:12.004Z,26.89
2022-08-17T06:51:16.355Z,26.9
2022-08-17T06:52:45.528Z,26.9
2022-08-17T06:53:51.719Z,26.92
2022-08-17T06:54:56.653Z,26.89
2022-08-17T06:56:01.030Z,26.87
2022-08-17T06:57:05.376Z,26.88
2022-08-17T06:58:16.050Z,26.87
2022-08-17T06:59:20.995Z,26.88
2022-08-17T07:00:25.362Z,26.87
2022-08-17T07:01:30.068Z,26.87
2022-08-17T07:02:50.911Z,26.88
2022-08-17T07:03:56.986Z,26.89
2022-08-17T07:05:07.495Z,26.9
2022-08-17T07:06:11.865Z,26.92
2022-08-17T07:07:16.237Z,26.92
2022-08-17T07:08:20.600Z,26.92
2022-08-17T07:09:34.343Z,26.93
2022-08-17T07:10:38.745Z,26.9
2022-08-17T07:11:43.107Z,26.9
2022-08-17T07:12:47.443Z,26.93
2022-08-17T07:13:52.384Z,26.93
2022-08-17T07:14:56.737Z,26.94
2022-08-17T07:16:01.103Z,26.94
2022-08-17T07:17:05.460Z,26.94
2022-08-17T07:18:09.828Z,26.93
2022-08-17T07:19:14.203Z,26.9
2022-08-17T07:20:18.572Z,26.93
2022-08-17T07:21:26.450Z,26.93
2022-08-17T07:22:31.049Z,26.94
2022-08-17T07:24:03.953Z,26.83
2022-08-17T07:25:08.332Z,26.83
2022-08-17T07:26:18.314Z,26.86
2022-08-17T07:27:22.677Z,26.88
2022-08-17T07:28:27.082Z,26.9
2022-08-17T07:29:31.460Z,26.93
2022-08-17T07:30:37.238Z,26.94
2022-08-17T07:31:51.271Z,26.93
2022-08-17T07:32:57.972Z,26.89
2022-08-17T07:34:02.362Z,26.91
2022-08-17T07:35:06.712Z,26.9
2022-08-17T07:36:17.657Z,26.91
2022-08-17T07:37:22.039Z,26.91
2022-08-17T07:38:27.114Z,26.93
2022-08-17T07:39:31.633Z,26.95
2022-08-17T07:40:36.214Z,26.95
2022-08-17T07:41:53.575Z,26.95
2022-08-17T07:43:03.324Z,26.89
2022-08-17T07:44:09.320Z,26.89
2022-08-17T07:45:13.694Z,26.94
2022-08-17T07:46:18.116Z,26.93
2022-08-17T07:47:22.481Z,26.94
2022-08-17T07:48:26.875Z,26.96
2022-08-17T07:49:31.635Z,26.97
2022-08-17T07:50:36.074Z,26.99
2022-08-17T07:51:41.538Z,26.99
2022-08-17T07:52:48.708Z,27.02
2022-08-17T07:54:04.893Z,27.03
2022-08-17T07:55:18.449Z,27.03
2022-08-17T07:56:22.815Z,27.05
2022-08-17T07:57:37.925Z,27.05
2022-08-17T07:58:42.309Z,27.06
2022-08-17T07:59:46.653Z,27.07
2022-08-17T08:00:52.823Z,27.07
2022-08-17T08:02:00.320Z,27.07
2022-08-17T08:03:08.528Z,27.02
2022-08-17T08:04:18.971Z,27.04
2022-08-17T08:06:12.559Z,27.06
2022-08-17T08:07:16.923Z,27.1
2022-08-17T08:08:21.252Z,27.1
2022-08-17T08:09:25.618Z,27.1
2022-08-17T08:10:32.828Z,27.11
2022-08-17T08:11:40.168Z,27.12
2022-08-17T08:12:47.850Z,27.13
2022-08-17T08:13:57.029Z,27.13
2022-08-17T08:15:01.406Z,27.15
2022-08-17T08:16:05.752Z,27.13
2022-08-17T08:17:10.093Z,27.14
2022-08-17T08:18:14.437Z,27.16
2022-08-17T08:20:00.482Z,27.16
2022-08-17T08:21:56.430Z,27.15
2022-08-17T08:23:00.783Z,27.16
2022-08-17T08:24:05.148Z,27.18
2022-08-17T08:25:09.488Z,27.18
2022-08-17T08:26:17.920Z,27.18
2022-08-17T08:27:22.817Z,27.22
2022-08-17T08:28:27.150Z,27.22
2022-08-17T08:29:31.504Z,27.22
2022-08-17T08:30:35.857Z,27.22
2022-08-17T08:31:42.439Z,27.21
2022-08-17T08:32:47.404Z,27.22
2022-08-17T08:33:53.714Z,27.24
2022-08-17T08:35:01.081Z,27.24
2022-08-17T08:36:07.448Z,27.26
2022-08-17T08:37:16.209Z,27.27
2022-08-17T08:38:41.438Z,27.3
2022-08-17T08:39:45.855Z,27.29
2022-08-17T08:40:50.425Z,27.28
2022-08-17T08:41:54.802Z,27.28
2022-08-17T08:42:59.149Z,27.29
2022-08-17T08:44:03.529Z,27.3
2022-08-17T08:45:07.886Z,27.31
2022-08-17T08:46:12.233Z,27.32
2022-08-17T08:47:22.012Z,27.31
2022-08-17T08:48:45.987Z,27.31
2022-08-17T08:50:30.458Z,27.32
2022-08-17T08:51:42.487Z,27.32
2022-08-17T08:52:47.413Z,27.33
2022-08-17T08:53:51.813Z,27.34
2022-08-17T08:54:56.161Z,27.35
2022-08-17T08:56:00.512Z,27.34
2022-08-17T08:57:24.122Z,27.34
2022-08-17T08:58:41.478Z,27.34
2022-08-17T08:59:51.136Z,27.35
2022-08-17T09:01:02.446Z,27.36
2022-08-17T09:02:06.970Z,27.36
2022-08-17T09:03:11.335Z,27.37
2022-08-17T09:04:24.514Z,27.37
2022-08-17T09:05:29.396Z,27.4
2022-08-17T09:06:38.676Z,27.41
2022-08-17T09:07:43.969Z,27.42
2022-08-17T09:08:48.520Z,27.43
2022-08-17T09:09:56.119Z,27.43
2022-08-17T09:11:02.892Z,27.43
2022-08-17T09:12:07.240Z,27.41
2022-08-17T09:13:11.643Z,27.41
2022-08-17T09:14:21.428Z,27.41
2022-08-17T09:15:38.884Z,27.44
2022-08-17T09:16:43.290Z,27.45
2022-08-17T09:17:47.663Z,27.48
2022-08-17T09:19:05.999Z,27.51
2022-08-17T09:20:10.762Z,27.52
2022-08-17T09:21:33.755Z,27.53
2022-08-17T09:22:48.091Z,27.55
2022-08-17T09:23:52.459Z,27.55
2022-08-17T09:24:56.875Z,27.55
2022-08-17T09:26:01.238Z,27.55
2022-08-17T09:27:05.625Z,27.53
2022-08-17T09:28:09.988Z,27.53
2022-08-17T09:29:14.442Z,27.55
2022-08-17T09:30:18.811Z,27.56
2022-08-17T09:31:28.729Z,27.56
2022-08-17T09:32:48.721Z,27.55
2022-08-17T09:33:53.111Z,27.55
2022-08-17T09:34:57.540Z,27.55
2022-08-17T09:36:01.908Z,27.56
2022-08-17T09:37:06.323Z,27.59
2022-08-17T09:38:10.763Z,27.61
2022-08-17T09:39:15.134Z,27.62
2022-08-17T09:40:19.656Z,27.65
2022-08-17T09:41:24.202Z,27.65
2022-08-17T09:42:28.573Z,27.67
2022-08-17T09:43:32.948Z,27.66
2022-08-17T09:44:37.331Z,27.67
2022-08-17T09:45:41.712Z,27.69
2022-08-17T09:46:46.092Z,27.68
2022-08-17T09:47:50.664Z,27.67
2022-08-17T09:48:55.646Z,27.66
2022-08-17T09:49:59.997Z,27.68
2022-08-17T09:51:06.377Z,27.67
2022-08-17T09:52:11.082Z,27.67
2022-08-17T09:53:15.439Z,27.69
2022-08-17T09:54:37.866Z,27.72
2022-08-17T09:55:44.007Z,27.69
2022-08-17T09:57:00.776Z,27.69
2022-08-17T09:58:34.011Z,27.67
2022-08-17T09:59:38.847Z,27.63
2022-08-17T10:00:48.405Z,27.78
2022-08-17T10:01:52.964Z,27.77
2022-08-17T10:02:57.313Z,27.75
2022-08-17T10:04:01.653Z,27.81
2022-08-17T10:05:06.058Z,27.79
2022-08-17T10:06:10.419Z,27.76
2022-08-17T10:07:14.774Z,27.72
2022-08-17T10:08:21.622Z,27.76
2022-08-17T10:09:26.827Z,27.75
2022-08-17T10:10:32.351Z,27.72
2022-08-17T10:11:38.336Z,27.76
2022-08-17T10:12:53.619Z,27.73
2022-08-17T10:13:59.464Z,27.71
2022-08-17T10:15:38.266Z,27.68
2022-08-17T10:16:45.819Z,27.67
2022-08-17T10:17:50.352Z,27.67
2022-08-17T10:18:55.123Z,27.66
2022-08-17T10:19:59.493Z,27.66
2022-08-17T10:21:03.858Z,27.66
2022-08-17T10:22:14.871Z,27.68
2022-08-17T10:23:42.354Z,27.64
2022-08-17T10:25:02.322Z,27.64
2022-08-17T10:26:57.310Z,27.65
2022-08-17T10:28:01.878Z,27.64
2022-08-17T10:29:06.285Z,27.66
2022-08-17T10:30:10.641Z,27.69
2022-08-17T10:31:34.085Z,27.64
2022-08-17T10:32:39.751Z,27.65
2022-08-17T10:33:44.151Z,27.66
2022-08-17T10:34:48.516Z,27.69
2022-08-17T10:35:52.869Z,27.66
2022-08-17T10:37:01.599Z,27.67
2022-08-17T10:38:06.038Z,27.7
2022-08-17T10:39:10.417Z,27.7
2022-08-17T10:40:14.957Z,27.76
2022-08-17T10:41:19.631Z,27.73
2022-08-17T10:42:30.180Z,27.7
2022-08-17T10:43:37.151Z,27.68
2022-08-17T10:44:41.741Z,27.67
2022-08-17T10:45:46.945Z,27.68
2022-08-17T10:47:11.624Z,27.66
2022-08-17T10:48:15.997Z,27.64
2022-08-17T10:49:20.371Z,27.67
2022-08-17T10:50:24.714Z,27.67
2022-08-17T10:51:29.081Z,27.64
2022-08-17T10:52:33.449Z,27.72
2022-08-17T10:53:37.809Z,27.74
2022-08-17T10:54:44.805Z,27.73
2022-08-17T10:55:49.174Z,27.7
2022-08-17T10:56:53.543Z,27.67
2022-08-17T10:57:57.915Z,27.67
2022-08-17T10:59:02.285Z,27.7
2022-08-17T11:00:06.637Z,27.71
2022-08-17T11:01:11.021Z,27.71
2022-08-17T11:02:15.692Z,27.7
2022-08-17T11:03:20.013Z,27.7
2022-08-17T11:04:25.173Z,27.71
2022-08-17T11:05:29.590Z,27.71
2022-08-17T11:06:33.957Z,27.71
2022-08-17T11:07:38.313Z,27.73
2022-08-17T11:08:42.726Z,27.73
2022-08-17T11:09:47.613Z,27.74
2022-08-17T11:10:52.447Z,27.73
2022-08-17T11:11:56.909Z,27.72
2022-08-17T11:13:01.405Z,27.71
2022-08-17T11:14:09.085Z,27.71
2022-08-17T11:15:13.608Z,27.74
2022-08-17T11:16:18.083Z,27.75
2022-08-17T11:17:23.233Z,27.76
2022-08-17T11:18:27.604Z,27.76
2022-08-17T11:19:31.972Z,27.78
2022-08-17T11:20:36.330Z,27.79
2022-08-17T11:21:40.802Z,27.82
2022-08-17T11:22:45.231Z,27.84
2022-08-17T11:23:49.765Z,27.85
2022-08-17T11:24:54.119Z,27.89
2022-08-17T11:25:58.487Z,27.94
2022-08-17T11:27:02.840Z,27.86
2022-08-17T11:28:07.244Z,27.78
2022-08-17T11:29:11.621Z,27.72
2022-08-17T11:30:20.066Z,27.66
2022-08-17T11:31:38.094Z,27.6
2022-08-17T11:32:47.321Z,27.56
2022-08-17T11:33:58.937Z,27.53
2022-08-17T11:35:03.363Z,27.51
2022-08-17T11:36:07.740Z,27.51
2022-08-17T11:37:12.131Z,27.49
2022-08-17T11:38:16.815Z,27.49
2022-08-17T11:39:21.255Z,27.48
2022-08-17T11:40:25.600Z,27.49
2022-08-17T11:41:30.946Z,27.47
2022-08-17T11:42:35.596Z,27.48
2022-08-17T11:43:42.795Z,27.46
2022-08-17T11:44:47.252Z,27.45
2022-08-17T11:45:51.626Z,27.44
2022-08-17T11:46:55.960Z,27.43
2022-08-17T11:48:26.337Z,27.43
2022-08-17T11:49:33.130Z,27.44
2022-08-17T11:50:37.529Z,27.44
2022-08-17T11:51:41.896Z,27.42
2022-08-17T11:52:46.815Z,27.42
2022-08-17T11:53:59.863Z,27.42
2022-08-17T11:55:40.621Z,27.41
2022-08-17T11:56:48.394Z,27.41
2022-08-17T11:57:52.727Z,27.39
2022-08-17T11:58:57.079Z,27.4
2022-08-17T12:00:01.444Z,27.4
2022-08-17T12:01:05.977Z,27.41
2022-08-17T12:02:10.637Z,27.4
2022-08-17T12:03:15.030Z,27.4
2022-08-17T12:04:19.651Z,27.41
2022-08-17T12:05:24.166Z,27.4
2022-08-17T12:06:29.342Z,27.39
2022-08-17T12:07:35.192Z,27.39
2022-08-17T12:08:42.525Z,27.38
2022-08-17T12:09:46.883Z,27.39
2022-08-17T12:10:51.254Z,27.4
2022-08-17T12:12:12.316Z,27.4
2022-08-17T12:13:18.406Z,27.39
2022-08-17T12:14:35.652Z,27.39
2022-08-17T12:16:14.546Z,27.4
2022-08-17T12:17:22.473Z,27.41
2022-08-17T12:18:46.482Z,27.42
2022-08-17T12:19:50.800Z,27.44
2022-08-17T12:20:58.263Z,27.45
2022-08-17T12:22:02.630Z,27.46
2022-08-17T12:23:06.967Z,27.47
2022-08-17T12:24:11.356Z,27.49
2022-08-17T12:25:15.720Z,27.51
2022-08-17T12:26:20.068Z,27.49
2022-08-17T12:27:46.281Z,27.51
2022-08-17T12:29:17.932Z,27.52
2022-08-17T12:30:42.624Z,27.53
2022-08-17T12:31:47.006Z,27.54
2022-08-17T12:32:51.387Z,27.55
2022-08-17T12:33:55.739Z,27.55
2022-08-17T12:35:00.098Z,27.54
2022-08-17T12:36:04.481Z,27.55
2022-08-17T12:37:08.839Z,27.54
2022-08-17T12:38:22.284Z,27.54
2022-08-17T12:39:37.562Z,27.54
2022-08-17T12:40:43.011Z,27.54
2022-08-17T12:41:47.378Z,27.54
2022-08-17T12:42:53.657Z,27.55
2022-08-17T12:43:58.043Z,27.54
2022-08-17T12:45:02.420Z,27.55
2022-08-17T12:46:13.043Z,27.54
2022-08-17T12:47:22.499Z,27.54
2022-08-17T12:48:31.810Z,27.54
2022-08-17T12:49:36.235Z,27.54
2022-08-17T12:50:40.597Z,27.54
2022-08-17T12:51:44.959Z,27.53
2022-08-17T12:52:49.339Z,27.54
2022-08-17T12:54:04.111Z,27.55
2022-08-17T12:55:08.528Z,27.54
2022-08-17T12:56:12.908Z,27.54
2022-08-17T12:57:17.253Z,27.54
2022-08-17T12:58:21.622Z,27.54
2022-08-17T12:59:30.033Z,27.52
2022-08-17T13:00:36.282Z,27.52
2022-08-17T13:01:40.676Z,27.53
2022-08-17T13:02:45.480Z,27.53
2022-08-17T13:03:49.836Z,27.52
2022-08-17T13:04:54.247Z,27.52
2022-08-17T13:05:58.608Z,27.53
2022-08-17T13:07:02.969Z,27.53
2022-08-17T13:08:07.332Z,27.53
2022-08-17T13:09:11.696Z,27.53
2022-08-17T13:10:16.097Z,27.53
2022-08-17T13:11:20.504Z,27.53
2022-08-17T13:12:24.903Z,27.53
2022-08-17T13:13:29.260Z,27.53
2022-08-17T13:14:34.082Z,27.54
2022-08-17T13:15:38.731Z,27.54
2022-08-17T13:16:48.889Z,27.54
2022-08-17T13:17:55.073Z,27.54
2022-08-17T13:18:59.455Z,27.53
2022-08-17T13:20:03.860Z,27.53
2022-08-17T13:21:08.269Z,27.54
2022-08-17T13:22:12.740Z,27.55
2022-08-17T13:23:17.218Z,27.56
2022-08-17T13:24:23.093Z,27.56
2022-08-17T13:25:27.465Z,27.56
2022-08-17T13:26:31.819Z,27.56
2022-08-17T13:27:36.195Z,27.56
2022-08-17T13:28:40.540Z,27.56
2022-08-17T13:29:44.961Z,27.56
2022-08-17T13:30:56.477Z,27.56
2022-08-17T13:32:03.877Z,27.56
2022-08-17T13:33:16.359Z,27.55
2022-08-17T13:34:47.576Z,27.53
2022-08-17T13:36:41.368Z,27.55
2022-08-17T13:37:51.233Z,27.54
2022-08-17T13:38:55.996Z,27.54
2022-08-17T13:40:00.479Z,27.54
2022-08-17T13:41:05.080Z,27.53
2022-08-17T13:42:13.506Z,27.53
2022-08-17T13:43:24.805Z,27.55
2022-08-17T13:44:29.182Z,27.56
2022-08-17T13:45:34.866Z,27.55
2022-08-17T13:46:44.579Z,27.55
2022-08-17T13:48:01.401Z,27.55
2022-08-17T13:49:05.746Z,27.56
2022-08-17T13:50:10.087Z,27.57
2022-08-17T13:51:14.445Z,27.58
2022-08-17T13:52:18.786Z,27.57
2022-08-17T13:53:33.426Z,27.58
2022-08-17T13:54:39.260Z,27.58
2022-08-17T13:55:43.615Z,27.58
2022-08-17T13:56:48.011Z,27.56
2022-08-17T13:57:57.769Z,27.57
2022-08-17T13:59:11.470Z,27.57
2022-08-17T14:00:16.167Z,27.57
2022-08-17T14:01:20.534Z,27.59
2022-08-17T14:02:26.051Z,27.6
2022-08-17T14:03:32.993Z,27.59
2022-08-17T14:04:37.336Z,27.59
2022-08-17T14:05:41.767Z,27.59
2022-08-17T14:06:49.366Z,27.58
2022-08-17T14:07:57.788Z,27.59
2022-08-17T14:09:02.130Z,27.58
2022-08-17T14:10:06.508Z,27.59
2022-08-17T14:11:10.858Z,27.57
2022-08-17T14:12:15.240Z,27.59
2022-08-17T14:13:19.591Z,27.59
2022-08-17T14:14:23.959Z,27.59
2022-08-17T14:15:53.792Z,27.59
2022-08-17T14:17:00.619Z,27.6
2022-08-17T14:18:04.988Z,27.61
2022-08-17T14:19:09.363Z,27.62
2022-08-17T14:20:13.718Z,27.62
2022-08-17T14:21:18.096Z,27.62
2022-08-17T14:22:22.525Z,27.61
2022-08-17T14:23:26.889Z,27.62
2022-08-17T14:24:31.220Z,27.62
2022-08-17T14:25:35.581Z,27.62
2022-08-17T14:26:39.945Z,27.62
2022-08-17T14:27:52.026Z,27.63
2022-08-17T14:28:58.341Z,27.62
2022-08-17T14:30:04.863Z,27.61
2022-08-17T14:31:09.213Z,27.62
2022-08-17T14:32:13.568Z,27.62